Terminal Aerodrome Forecast
Issued by NWS

Home | Current Version | Previous Version | Text Only | Print | Product List | Glossary On
Versions: 1 2 3 4 5 6 7 8 9 10 11 12 13 14 15 16 17 18 19 20 21 22 23 24 25 26 27 28
000
FTUS43 KDTX 281124
TAFPTK
TAF
KPTK 281124Z 2812/2912 28007KT P6SM SCT035
     FM281400 24006KT P6SM SCT035 BKN110
     FM281900 20008KT P6SM BKN050 OVC080
     FM282200 18007KT 2SM -SN BKN018 OVC030
     FM290200 18007KT 5SM -SN BKN022 OVC040
     FM290800 17007KT 6SM -SHSN BKN040 OVC080=

USA.gov is the U.S. government's official web portal to all federal, state and local government web resources and services.